This is the latest recevied weather packets stored in our database for station/object KE4AMH. If no packets are shown the sender has not sent any weather packets the latest 10 day(s).
| Time | Temp. | Humidity | Pressure | Rain* | Wind** | Luminosity | Snow |
|---|---|---|---|---|---|---|---|
| 1777543008 | 16.11° C | 99% | 1009.4 hPa | 0 mm | - | 0 W/m² | - |
| 1777542704 | 15.56° C | 99% | 1009.3 hPa | 0.51 mm | - | 0 W/m² | - |
| 1777542402 | 16.11° C | 99% | 1009.4 hPa | 1.27 mm | - | 0 W/m² | - |
| 1777542098 | 16.11° C | 99% | 1009.5 hPa | 1.27 mm | - | 0 W/m² | - |
| 1777541795 | 16.11° C | 99% | 1009.6 hPa | 1.78 mm | - | 0 W/m² | - |
| 1777541492 | 16.11° C | 99% | 1009.7 hPa | 2.29 mm | - | 0 W/m² | - |
| 1777541189 | 16.11° C | 99% | 1009.8 hPa | 4.32 mm | - | 0 W/m² | - |
| 1777540885 | 16.11° C | 99% | 1009.6 hPa | 4.32 mm | - | 0 W/m² | - |
| 1777540583 | 16.67° C | 99% | 1009.4 hPa | 3.05 mm | - | 0 W/m² | - |
| 1777540279 | 16.67° C | 99% | 1009.7 hPa | 3.56 mm | - | 0 W/m² | - |
| 1777539976 | 16.11° C | 99% | 1009.9 hPa | 4.32 mm | - | 0 W/m² | - |
| 1777539671 | 16.11° C | 99% | 1009.8 hPa | 3.56 mm | - | 0 W/m² | - |
| 1777539367 | 16.11° C | 99% | 1009.7 hPa | 3.05 mm | - | 0 W/m² | - |
| 1777539064 | 16.11° C | 99% | 1009.5 hPa | 3.56 mm | - | 0 W/m² | - |
| 1777538760 | 16.11° C | 99% | 1009.4 hPa | 5.33 mm | - | 0 W/m² | - |
| 1777538455 | 16.11° C | 99% | 1009.4 hPa | 9.65 mm | - | 0 W/m² | - |
| 1777538151 | 16.67° C | 97% | 1009.5 hPa | 7.11 mm | - | 0 W/m² | - |
| 1777537847 | 18.33° C | 96% | 1009.7 hPa | 0 mm | - | 0 W/m² | - |
| 1777537544 | 18.33° C | 97% | 1008.7 hPa | 0 mm | - | 0 W/m² | - |
| 1777537239 | 18.33° C | 97% | 1008.4 hPa | 0 mm | - | 0 W/m² | - |
| 1777536935 | 18.33° C | 97% | 1008.1 hPa | 0 mm | - | 0 W/m² | - |
| 1777536633 | 18.33° C | 97% | 1008.3 hPa | 0 mm | - | 0 W/m² | - |
| 1777536330 | 18.33° C | 97% | 1008.3 hPa | 0 mm | - | 0 W/m² | - |
| 1777536026 | 18.33° C | 97% | 1008.4 hPa | 0 mm | - | 0 W/m² | - |
| 1777535721 | 18.33° C | 97% | 1008.5 hPa | 0 mm | - | 0 W/m² | - |
* Rain latest hour (hover to see other rain measurements)
** Current wind speed in m/s (hover to see current wind gust speed)